Time;durP1;ratioP1;P1;durP2;ratioP2;P2;SDS_P1;SDS_P2;PMS_P1;PMS_P2;Temp;Humidity;BMP_temperature;BMP_pressure;BME280_temperature;BME280_humidity;BME280_pressure;Samples;Min_cycle;Max_cycle;Signal;HPM_P1;HPM_P2
2024/01/23 00:02:02;;;;;;;1.33;0.93;;;6.40;99.90;;;;;;5114577;28;20287;-60
2024/01/23 00:04:28;;;;;;;0.75;0.75;;;6.10;99.90;;;;;;5114946;28;20543;-61
2024/01/23 00:06:58;;;;;;;1.43;0.73;;;6.30;99.90;;;;;;5108374;28;20286;-60
2024/01/23 00:09:26;;;;;;;7.22;1.73;;;6.30;99.90;;;;;;5084164;28;20417;-60
2024/01/23 00:11:52;;;;;;;3.60;1.20;;;6.50;99.90;;;;;;5103355;28;20210;-60
2024/01/23 00:14:17;;;;;;;3.23;1.20;;;6.50;99.90;;;;;;5105550;28;20195;-60
2024/01/23 00:16:43;;;;;;;1.40;1.07;;;6.50;99.90;;;;;;5098570;28;20583;-60
2024/01/23 00:19:08;;;;;;;3.83;1.47;;;6.60;99.90;;;;;;5104812;28;20179;-61
2024/01/23 00:21:39;;;;;;;1.20;1.10;;;6.60;99.90;;;;;;5086051;28;20278;-61
2024/01/23 00:24:07;;;;;;;0.98;0.85;;;6.60;99.90;;;;;;5105090;28;20170;-60
2024/01/23 00:26:37;;;;;;;1.15;1.05;;;6.70;99.90;;;;;;5085362;28;20169;-61
2024/01/23 00:29:05;;;;;;;1.60;0.82;;;6.60;99.90;;;;;;5109386;28;20189;-62
2024/01/23 00:31:33;;;;;;;3.75;1.23;;;6.60;99.90;;;;;;5108963;28;20235;-61
2024/01/23 00:33:59;;;;;;;2.28;0.82;;;6.50;99.90;;;;;;5086871;28;20544;-61
2024/01/23 00:36:28;;;;;;;0.80;0.70;;;6.30;99.90;;;;;;5108163;28;20186;-61
2024/01/23 00:38:54;;;;;;;3.08;0.90;;;6.20;99.90;;;;;;5103730;28;20171;-62
2024/01/23 00:41:20;;;;;;;7.07;1.50;;;6.30;99.90;;;;;;5102785;28;20739;-61
2024/01/23 00:43:45;;;;;;;3.70;1.30;;;6.30;99.90;;;;;;5105711;28;20214;-61
2024/01/23 00:46:11;;;;;;;0.87;0.77;;;6.30;99.90;;;;;;5104151;28;20165;-61
2024/01/23 00:48:37;;;;;;;4.97;1.43;;;6.30;99.90;;;;;;5102306;28;20191;-61
2024/01/23 00:51:03;;;;;;;1.17;1.07;;;6.40;99.90;;;;;;5104096;28;20173;-61
2024/01/23 00:53:28;;;;;;;6.53;1.13;;;6.50;99.90;;;;;;5102867;28;20174;-61
2024/01/23 00:55:54;;;;;;;7.47;2.00;;;6.40;99.90;;;;;;5103479;28;20411;-61
2024/01/23 00:58:20;;;;;;;4.60;1.53;;;6.40;99.90;;;;;;5101328;28;20198;-61
2024/01/23 01:00:48;;;;;;;5.57;1.27;;;6.40;99.90;;;;;;5097016;28;20238;-61
2024/01/23 01:03:14;;;;;;;8.77;2.03;;;6.30;99.90;;;;;;5109837;28;20167;-61
2024/01/23 01:05:43;;;;;;;2.20;2.10;;;6.20;99.90;;;;;;5085801;28;20656;-61
2024/01/23 01:08:11;;;;;;;1.52;1.42;;;6.10;99.90;;;;;;5094716;28;20220;-61
2024/01/23 01:10:36;;;;;;;1.20;1.10;;;6.10;99.90;;;;;;5105961;28;20188;-61
2024/01/23 01:13:03;;;;;;;1.50;1.13;;;6.10;99.90;;;;;;5111109;28;20177;-61
2024/01/23 01:15:29;;;;;;;1.60;1.10;;;6.20;99.90;;;;;;5109635;28;20177;-61
2024/01/23 01:17:54;;;;;;;7.10;1.30;;;6.30;99.90;;;;;;5114553;27;20205;-61
2024/01/23 01:20:24;;;;;;;5.30;1.83;;;6.40;99.90;;;;;;5115272;27;20179;-61
2024/01/23 01:22:50;;;;;;;2.67;1.02;;;6.40;99.90;;;;;;5101834;28;20227;-61
2024/01/23 01:25:16;;;;;;;4.77;1.33;;;6.20;99.90;;;;;;5115454;22;20235;-61
2024/01/23 01:27:46;;;;;;;3.50;1.43;;;6.10;99.90;;;;;;5092582;28;20410;-60
2024/01/23 01:30:12;;;;;;;5.22;1.38;;;6.20;99.90;;;;;;5092795;28;20651;-61
2024/01/23 01:32:40;;;;;;;2.38;1.30;;;6.30;99.90;;;;;;5085666;28;20183;-60
2024/01/23 01:35:06;;;;;;;4.03;1.08;;;6.40;99.90;;;;;;5092226;28;20208;-61
2024/01/23 01:37:33;;;;;;;3.25;1.13;;;6.40;99.90;;;;;;5092381;28;20572;-61
2024/01/23 01:39:58;;;;;;;4.00;1.08;;;6.30;99.90;;;;;;5092963;28;20630;-61
2024/01/23 01:42:24;;;;;;;1.17;1.07;;;6.20;99.90;;;;;;5091967;28;20298;-61
2024/01/23 01:44:50;;;;;;;1.73;1.63;;;6.40;99.90;;;;;;5092111;28;20175;-59
2024/01/23 01:47:18;;;;;;;1.35;0.90;;;6.30;99.90;;;;;;5094911;28;20187;-60
2024/01/23 01:49:45;;;;;;;5.93;1.83;;;6.30;99.90;;;;;;5092109;28;20719;-60
2024/01/23 01:52:11;;;;;;;2.28;1.25;;;6.40;99.90;;;;;;5092081;28;20277;-61
2024/01/23 01:54:40;;;;;;;0.80;0.80;;;6.40;99.90;;;;;;5092388;28;20184;-61
2024/01/23 01:57:07;;;;;;;2.78;1.95;;;6.20;99.90;;;;;;5073898;28;20275;-61
2024/01/23 01:59:33;;;;;;;1.30;0.88;;;6.20;99.90;;;;;;5091868;28;20271;-61
2024/01/23 02:02:00;;;;;;;1.80;1.70;;;6.10;99.90;;;;;;5073647;28;20298;-60
2024/01/23 02:04:26;;;;;;;1.45;1.00;;;6.00;99.90;;;;;;5092075;28;20532;-60
2024/01/23 02:06:52;;;;;;;6.73;1.20;;;6.10;99.90;;;;;;5091147;28;20270;-61
2024/01/23 02:09:18;;;;;;;2.30;1.63;;;6.10;99.90;;;;;;5091682;28;20228;-61
2024/01/23 02:12:00;;;;;;;2.33;1.40;;;6.00;99.90;;;;;;5091057;28;20642;-61
2024/01/23 02:14:28;;;;;;;5.05;2.00;;;6.00;99.90;;;;;;5092039;28;20179;-60
2024/01/23 02:16:54;;;;;;;3.63;1.27;;;5.90;99.90;;;;;;5091993;28;20189;-60
2024/01/23 02:19:20;;;;;;;3.57;1.60;;;6.00;99.90;;;;;;5091412;28;20169;-61
2024/01/23 02:21:45;;;;;;;2.33;1.17;;;5.90;99.90;;;;;;5090988;28;20238;-61
2024/01/23 02:24:11;;;;;;;5.87;2.90;;;6.00;99.90;;;;;;5091576;28;20416;-60
2024/01/23 02:26:36;;;;;;;2.53;1.13;;;6.10;99.90;;;;;;5091561;28;20208;-61
2024/01/23 02:29:02;;;;;;;3.17;1.13;;;6.10;99.90;;;;;;5091810;28;20653;-60
2024/01/23 02:31:28;;;;;;;1.90;1.20;;;6.10;99.90;;;;;;5091529;28;20180;-61
2024/01/23 02:33:53;;;;;;;1.43;1.33;;;6.10;99.90;;;;;;5091665;28;20188;-60
2024/01/23 02:36:19;;;;;;;4.43;1.30;;;6.10;99.90;;;;;;5092580;28;20197;-61
2024/01/23 02:38:44;;;;;;;3.03;1.30;;;6.20;99.90;;;;;;5092015;28;20358;-61
2024/01/23 02:41:11;;;;;;;4.53;0.80;;;6.30;99.90;;;;;;5091581;28;20206;-61
2024/01/23 02:43:37;;;;;;;4.30;2.38;;;6.30;99.90;;;;;;5091673;28;20640;-61
2024/01/23 02:46:03;;;;;;;0.90;0.90;;;6.30;99.90;;;;;;5092127;28;20191;-61
2024/01/23 02:48:29;;;;;;;3.45;1.50;;;6.20;99.90;;;;;;5091740;28;20654;-61
2024/01/23 02:50:54;;;;;;;1.10;1.00;;;6.20;99.90;;;;;;5091512;28;20186;-61
2024/01/23 02:53:20;;;;;;;1.93;1.03;;;6.00;99.90;;;;;;5091707;28;20182;-61
2024/01/23 02:55:46;;;;;;;3.30;1.67;;;5.90;99.90;;;;;;5091097;28;20228;-61
2024/01/23 02:58:12;;;;;;;4.97;1.50;;;5.50;99.90;;;;;;5091627;28;20266;-61
2024/01/23 03:00:39;;;;;;;1.30;1.00;;;5.70;99.90;;;;;;5091417;28;20210;-61
2024/01/23 03:03:07;;;;;;;1.80;1.35;;;5.70;99.90;;;;;;5091375;28;20411;-61
2024/01/23 03:05:33;;;;;;;2.65;1.10;;;5.80;99.90;;;;;;5091444;28;20204;-61
2024/01/23 03:07:58;;;;;;;4.57;1.43;;;5.80;99.90;;;;;;5091536;28;20699;-61
2024/01/23 03:10:24;;;;;;;1.70;0.90;;;5.90;99.90;;;;;;5091212;28;20412;-61
2024/01/23 03:12:50;;;;;;;4.83;1.80;;;6.00;99.90;;;;;;5091489;28;20177;-60
2024/01/23 03:15:15;;;;;;;1.00;0.90;;;5.90;99.90;;;;;;5091473;28;20530;-61
2024/01/23 03:17:41;;;;;;;6.63;3.83;;;6.00;99.90;;;;;;5091525;28;20337;-61
2024/01/23 03:20:07;;;;;;;1.23;1.13;;;6.10;99.90;;;;;;5091318;28;20162;-61
2024/01/23 03:22:33;;;;;;;3.25;1.08;;;6.10;99.90;;;;;;5091144;28;20205;-61
2024/01/23 03:24:59;;;;;;;0.80;0.80;;;6.10;99.90;;;;;;5091298;28;20604;-61
2024/01/23 03:27:25;;;;;;;1.30;1.05;;;6.10;99.90;;;;;;5091460;28;20564;-61
2024/01/23 03:29:55;;;;;;;0.70;0.70;;;6.10;99.90;;;;;;5091324;28;20226;-60
2024/01/23 03:32:21;;;;;;;1.45;0.80;;;6.10;99.90;;;;;;5091003;28;20169;-61
2024/01/23 03:34:48;;;;;;;1.50;1.10;;;6.20;99.90;;;;;;5091521;28;20313;-61
2024/01/23 03:37:15;;;;;;;1.63;1.52;;;6.20;99.90;;;;;;5091237;28;20172;-61
2024/01/23 03:39:41;;;;;;;0.75;0.75;;;6.20;99.90;;;;;;5091156;28;20641;-60
2024/01/23 03:42:07;;;;;;;2.67;0.90;;;6.30;99.90;;;;;;5091177;28;20200;-61
2024/01/23 03:44:32;;;;;;;1.50;0.80;;;6.30;99.90;;;;;;5091619;28;20588;-61
2024/01/23 03:46:58;;;;;;;2.30;0.90;;;6.30;99.90;;;;;;5091114;28;20273;-61
2024/01/23 03:49:24;;;;;;;0.77;0.70;;;6.20;99.90;;;;;;5091172;28;20419;-61
2024/01/23 03:51:51;;;;;;;0.50;0.50;;;6.10;99.90;;;;;;5089619;28;20177;-61
2024/01/23 03:54:17;;;;;;;0.60;0.50;;;6.00;99.90;;;;;;5091092;28;20426;-61
2024/01/23 03:56:42;;;;;;;0.40;0.40;;;6.00;99.90;;;;;;5091769;28;20189;-60
2024/01/23 03:59:08;;;;;;;0.40;0.40;;;5.80;99.90;;;;;;5091490;28;20169;-61
2024/01/23 04:01:34;;;;;;;0.43;0.40;;;5.40;99.90;;;;;;5091039;28;20211;-61
2024/01/23 04:04:00;;;;;;;0.47;0.40;;;5.20;99.90;;;;;;5090898;28;20177;-61
2024/01/23 04:06:26;;;;;;;0.40;0.40;;;5.20;99.90;;;;;;5091496;28;20425;-61
2024/01/23 04:08:51;;;;;;;0.40;0.40;;;5.20;99.90;;;;;;5094538;28;20704;-61
2024/01/23 04:11:17;;;;;;;1.80;0.70;;;5.40;99.90;;;;;;5094167;28;20167;-61
2024/01/23 04:13:43;;;;;;;3.37;1.20;;;5.20;99.90;;;;;;5094084;28;20170;-60
2024/01/23 04:16:09;;;;;;;0.50;0.50;;;5.20;99.90;;;;;;5094323;28;20262;-60
2024/01/23 04:18:35;;;;;;;0.80;0.80;;;5.30;99.90;;;;;;5094426;28;20557;-61
2024/01/23 04:21:01;;;;;;;0.83;0.83;;;5.40;99.90;;;;;;5094127;28;20444;-61
2024/01/23 04:23:28;;;;;;;4.53;1.13;;;5.50;99.90;;;;;;5094152;28;20276;-61
2024/01/23 04:25:54;;;;;;;0.80;0.80;;;5.60;99.90;;;;;;5094205;28;20522;-61
2024/01/23 04:28:20;;;;;;;5.23;1.77;;;5.60;99.90;;;;;;5094135;28;20177;-61
2024/01/23 04:30:46;;;;;;;2.30;1.05;;;5.60;99.90;;;;;;5094125;28;20474;-61
2024/01/23 04:33:12;;;;;;;1.33;1.23;;;5.60;99.90;;;;;;5094077;28;20175;-60
2024/01/23 04:35:37;;;;;;;0.73;0.73;;;5.40;99.90;;;;;;5094164;28;20196;-61
2024/01/23 04:38:03;;;;;;;1.43;0.80;;;5.30;99.90;;;;;;5094086;28;20196;-61
2024/01/23 04:40:29;;;;;;;1.73;0.80;;;5.40;99.90;;;;;;5093780;28;20618;-61
2024/01/23 04:42:54;;;;;;;2.47;0.57;;;5.40;99.90;;;;;;5093702;28;20180;-60
2024/01/23 04:45:20;;;;;;;1.40;1.20;;;5.30;99.90;;;;;;5093905;28;20865;-61
2024/01/23 04:47:46;;;;;;;0.50;0.47;;;5.40;99.90;;;;;;5093915;28;20166;-61
2024/01/23 04:50:11;;;;;;;3.03;0.73;;;5.40;99.90;;;;;;5093821;28;20183;-61
2024/01/23 04:52:40;;;;;;;1.33;0.80;;;5.50;99.90;;;;;;5093445;28;20245;-61
2024/01/23 04:55:06;;;;;;;0.93;0.45;;;5.50;99.90;;;;;;5093598;28;20173;-60
2024/01/23 04:57:31;;;;;;;1.73;1.05;;;5.40;99.90;;;;;;5094076;28;20689;-60
2024/01/23 05:00:01;;;;;;;0.60;0.60;;;5.40;99.90;;;;;;5093569;28;20174;-60
2024/01/23 05:02:27;;;;;;;0.70;0.70;;;5.50;99.90;;;;;;5093495;28;20202;-61
2024/01/23 05:04:53;;;;;;;1.17;1.00;;;5.60;99.90;;;;;;5093442;28;20262;-61
2024/01/23 05:07:19;;;;;;;3.70;1.38;;;5.40;99.90;;;;;;5093426;28;20180;-61
2024/01/23 05:09:45;;;;;;;4.47;1.17;;;5.40;99.90;;;;;;5093331;28;20174;-61
2024/01/23 05:12:10;;;;;;;2.30;1.00;;;5.40;99.90;;;;;;5093090;28;20405;-60
2024/01/23 05:14:36;;;;;;;1.43;1.33;;;5.20;99.90;;;;;;5093384;28;20777;-60
2024/01/23 05:17:02;;;;;;;2.40;0.90;;;5.30;99.90;;;;;;5092937;28;20429;-61
2024/01/23 05:19:29;;;;;;;4.40;1.87;;;5.50;99.90;;;;;;5094307;28;20184;-61
2024/01/23 05:21:55;;;;;;;2.65;1.15;;;5.70;99.90;;;;;;5092721;28;20465;-61
2024/01/23 05:24:20;;;;;;;3.17;1.73;;;5.80;99.90;;;;;;5093136;28;20169;-61
2024/01/23 05:26:46;;;;;;;11.93;1.50;;;5.70;99.90;;;;;;5093036;28;20434;-61
2024/01/23 05:29:12;;;;;;;2.10;1.43;;;5.60;99.90;;;;;;5093029;28;20188;-60
2024/01/23 05:31:37;;;;;;;1.13;0.80;;;5.70;99.90;;;;;;5092690;28;20406;-60
2024/01/23 05:34:03;;;;;;;3.83;2.20;;;5.70;99.90;;;;;;5093343;28;20177;-61
2024/01/23 05:36:29;;;;;;;3.80;2.03;;;5.50;99.90;;;;;;5092810;28;20258;-61
2024/01/23 05:38:54;;;;;;;3.50;0.90;;;5.60;99.90;;;;;;5092834;28;20226;-61
2024/01/23 05:41:20;;;;;;;5.70;1.03;;;5.60;99.90;;;;;;5092569;28;20201;-61
2024/01/23 05:43:46;;;;;;;6.53;1.40;;;5.70;99.90;;;;;;5092024;28;20165;-59
2024/01/23 05:46:11;;;;;;;4.00;1.80;;;5.70;99.90;;;;;;5092524;28;20186;-61
2024/01/23 05:48:37;;;;;;;2.37;1.20;;;5.80;99.90;;;;;;5092590;28;20498;-61
2024/01/23 05:51:03;;;;;;;1.53;1.13;;;5.80;99.90;;;;;;5092891;28;20204;-60
2024/01/23 05:53:28;;;;;;;7.20;1.37;;;5.60;99.90;;;;;;5092540;28;20169;-60
2024/01/23 05:55:54;;;;;;;3.90;1.47;;;5.40;99.90;;;;;;5092457;28;20696;-61
2024/01/23 05:58:19;;;;;;;1.80;1.70;;;5.30;99.90;;;;;;5092523;28;20173;-60
2024/01/23 06:00:45;;;;;;;0.90;0.90;;;5.40;99.90;;;;;;5092180;28;20194;-61
2024/01/23 06:03:11;;;;;;;5.57;1.43;;;5.30;99.90;;;;;;5092381;28;20169;-61
2024/01/23 06:05:36;;;;;;;0.90;0.90;;;5.30;99.90;;;;;;5092324;28;20185;-61
2024/01/23 06:08:03;;;;;;;2.53;1.07;;;5.30;99.90;;;;;;5092345;28;20248;-61
2024/01/23 06:10:28;;;;;;;6.22;2.63;;;5.20;99.90;;;;;;5091998;28;20183;-61
2024/01/23 06:12:54;;;;;;;0.60;0.50;;;5.30;99.90;;;;;;5092199;28;20641;-61
2024/01/23 06:15:20;;;;;;;1.65;0.73;;;5.30;99.90;;;;;;5092281;28;20226;-60
2024/01/23 06:17:46;;;;;;;0.90;0.50;;;5.30;99.90;;;;;;5092211;28;20296;-61
2024/01/23 06:20:14;;;;;;;2.20;0.83;;;5.40;99.90;;;;;;5092107;28;20168;-60
2024/01/23 06:22:40;;;;;;;0.85;0.77;;;5.30;99.90;;;;;;5091638;28;20442;-61
2024/01/23 06:25:13;;;;;;;1.20;0.65;;;5.40;99.90;;;;;;5091790;28;20204;-61
2024/01/23 06:27:38;;;;;;;5.88;1.05;;;5.20;99.90;;;;;;5092248;28;20619;-61
2024/01/23 06:30:05;;;;;;;1.63;0.73;;;5.10;99.90;;;;;;5091058;28;20188;-61
2024/01/23 06:32:31;;;;;;;0.40;0.40;;;5.20;99.90;;;;;;5091809;28;20176;-60
2024/01/23 06:34:57;;;;;;;0.88;0.43;;;5.20;99.90;;;;;;5091828;28;20177;-61
2024/01/23 06:37:23;;;;;;;1.53;0.50;;;5.10;99.90;;;;;;5091719;28;20173;-61
2024/01/23 06:39:48;;;;;;;0.40;0.40;;;4.70;99.90;;;;;;5091987;28;20415;-61
2024/01/23 06:42:14;;;;;;;1.00;0.47;;;4.80;99.90;;;;;;5092614;28;20675;-61
2024/01/23 06:44:40;;;;;;;0.50;0.50;;;4.90;99.90;;;;;;5091924;28;20448;-61
2024/01/23 06:47:06;;;;;;;4.23;0.90;;;5.00;99.90;;;;;;5091393;28;20365;-61
2024/01/23 06:49:32;;;;;;;0.40;0.40;;;5.00;99.90;;;;;;5091532;28;20183;-61
2024/01/23 06:51:57;;;;;;;3.43;1.23;;;4.80;99.90;;;;;;5091182;28;20704;-61
2024/01/23 06:54:23;;;;;;;1.07;0.53;;;4.60;99.90;;;;;;5091071;28;20411;-60
2024/01/23 06:56:49;;;;;;;1.10;0.70;;;4.70;99.90;;;;;;5091615;28;20188;-60
2024/01/23 06:59:15;;;;;;;4.23;1.53;;;4.80;99.90;;;;;;5090894;28;20171;-64
2024/01/23 07:01:41;;;;;;;4.57;1.10;;;4.70;99.90;;;;;;5090328;28;20186;-65
2024/01/23 07:04:07;;;;;;;0.67;0.67;;;4.60;99.90;;;;;;5087925;28;20178;-61
2024/01/23 07:06:34;;;;;;;1.60;1.45;;;4.70;99.90;;;;;;5091154;28;20522;-61
2024/01/23 07:08:59;;;;;;;1.88;1.15;;;4.90;99.90;;;;;;5090251;28;20603;-62
2024/01/23 07:11:26;;;;;;;2.73;1.00;;;5.10;99.90;;;;;;5089470;28;20260;-62
2024/01/23 07:13:52;;;;;;;2.47;0.88;;;5.10;99.90;;;;;;5090903;28;20186;-62
2024/01/23 07:16:17;;;;;;;1.67;0.80;;;5.10;99.90;;;;;;5091240;28;20297;-62
2024/01/23 07:18:43;;;;;;;3.63;1.73;;;5.20;99.90;;;;;;5091451;28;20173;-62
2024/01/23 07:21:09;;;;;;;3.10;1.00;;;5.10;99.90;;;;;;5090338;28;20358;-62
2024/01/23 07:23:36;;;;;;;4.30;1.13;;;5.10;99.90;;;;;;5091040;28;20194;-62
2024/01/23 07:26:02;;;;;;;3.53;0.98;;;5.00;99.90;;;;;;5091201;28;20208;-62
2024/01/23 07:28:28;;;;;;;1.13;0.60;;;5.00;99.90;;;;;;5091310;28;20181;-61
2024/01/23 07:30:53;;;;;;;1.27;0.70;;;5.00;99.90;;;;;;5091191;28;20173;-62
2024/01/23 07:33:19;;;;;;;1.90;0.90;;;5.10;99.90;;;;;;5091174;28;20174;-62
2024/01/23 07:35:44;;;;;;;2.30;0.80;;;5.20;99.90;;;;;;5091109;28;20704;-62
2024/01/23 07:38:11;;;;;;;2.73;1.00;;;5.20;99.90;;;;;;5091318;28;20175;-62
2024/01/23 07:40:43;;;;;;;7.85;1.25;;;5.20;99.90;;;;;;5091820;28;20172;-62
2024/01/23 07:43:09;;;;;;;0.85;0.85;;;5.00;99.90;;;;;;5094991;28;20194;-62
2024/01/23 07:45:35;;;;;;;6.23;1.13;;;5.00;99.90;;;;;;5095000;28;20178;-62
2024/01/23 07:48:00;;;;;;;5.53;0.70;;;5.10;99.90;;;;;;5094789;28;20311;-62
2024/01/23 07:50:29;;;;;;;1.63;0.97;;;5.20;99.90;;;;;;5094688;28;20174;-62
2024/01/23 07:52:54;;;;;;;4.28;1.05;;;5.30;99.90;;;;;;5094783;28;20651;-62
2024/01/23 07:55:20;;;;;;;2.83;1.40;;;5.40;99.90;;;;;;5095079;28;20198;-62
2024/01/23 07:57:45;;;;;;;2.20;0.90;;;5.60;99.90;;;;;;5094964;28;20225;-60
2024/01/23 08:00:17;;;;;;;1.67;0.73;;;5.50;99.90;;;;;;5094743;28;20172;-61
2024/01/23 08:02:42;;;;;;;1.35;1.25;;;5.40;99.90;;;;;;5094865;28;20215;-61
2024/01/23 08:05:08;;;;;;;2.53;1.07;;;5.40;99.90;;;;;;5094960;28;20167;-61
2024/01/23 08:07:34;;;;;;;4.18;1.10;;;5.60;99.90;;;;;;5094630;28;20199;-61
2024/01/23 08:10:00;;;;;;;2.93;1.30;;;5.60;99.90;;;;;;5094691;28;20177;-61
2024/01/23 08:12:26;;;;;;;1.20;0.87;;;5.70;99.90;;;;;;5094315;28;20165;-61
2024/01/23 08:14:52;;;;;;;4.78;1.60;;;5.70;99.90;;;;;;5094414;28;20162;-60
2024/01/23 08:17:18;;;;;;;2.20;0.80;;;5.70;99.90;;;;;;5094389;28;20676;-61
2024/01/23 08:19:44;;;;;;;7.50;0.80;;;5.80;99.90;;;;;;5094321;28;20263;-61
2024/01/23 08:22:09;;;;;;;1.60;0.60;;;5.80;99.90;;;;;;5094228;28;20307;-61
2024/01/23 08:24:35;;;;;;;0.50;0.50;;;6.00;99.90;;;;;;5094409;28;20248;-61
2024/01/23 08:27:01;;;;;;;0.83;0.70;;;6.10;99.90;;;;;;5093896;28;20206;-61
2024/01/23 08:29:26;;;;;;;0.77;0.77;;;6.30;99.90;;;;;;5094188;28;20171;-61
2024/01/23 08:31:54;;;;;;;0.97;0.80;;;6.20;99.90;;;;;;5093878;28;20626;-61
2024/01/23 08:34:20;;;;;;;1.00;0.68;;;6.20;99.90;;;;;;5093420;28;20264;-61
2024/01/23 08:36:46;;;;;;;1.10;1.00;;;6.20;99.90;;;;;;5093921;28;20281;-61
2024/01/23 08:39:11;;;;;;;0.70;0.70;;;6.10;99.90;;;;;;5093769;28;20622;-60
2024/01/23 08:41:37;;;;;;;4.10;0.90;;;6.10;99.90;;;;;;5093580;28;20211;-61
2024/01/23 08:44:03;;;;;;;1.47;0.80;;;6.10;99.90;;;;;;5094085;28;20552;-67
2024/01/23 08:46:29;;;;;;;1.80;0.90;;;6.30;99.90;;;;;;5093952;28;20200;-67
2024/01/23 08:48:54;;;;;;;6.13;1.30;;;6.90;99.90;;;;;;5094004;28;20442;-67
2024/01/23 08:51:24;;;;;;;1.50;1.40;;;7.80;99.90;;;;;;5094250;28;20962;-66
2024/01/23 08:53:52;;;;;;;1.48;0.80;;;8.60;99.90;;;;;;5074722;28;21007;-67
2024/01/23 08:56:23;;;;;;;4.15;1.17;;;9.40;99.90;;;;;;5092513;28;20223;-63
2024/01/23 08:58:49;;;;;;;3.47;1.63;;;10.00;97.70;;;;;;5093451;28;20536;-62
2024/01/23 09:01:15;;;;;;;5.38;1.00;;;10.10;95.80;;;;;;5093253;28;20199;-63
2024/01/23 09:03:41;;;;;;;2.80;1.80;;;9.60;95.70;;;;;;5093392;28;20168;-63
2024/01/23 09:06:07;;;;;;;1.37;1.27;;;9.10;95.70;;;;;;5093399;28;20192;-63
2024/01/23 09:08:32;;;;;;;3.88;1.85;;;8.60;96.30;;;;;;5093446;28;20161;-63
2024/01/23 09:10:58;;;;;;;2.43;0.73;;;8.10;96.90;;;;;;5093225;28;20184;-63
2024/01/23 09:13:24;;;;;;;2.10;0.93;;;7.60;97.40;;;;;;5093271;28;20177;-63
2024/01/23 09:15:49;;;;;;;1.00;0.70;;;7.10;97.80;;;;;;5090593;28;20196;-61
2024/01/23 09:18:15;;;;;;;1.27;1.17;;;6.70;98.60;;;;;;5092588;28;20413;-63
2024/01/23 09:20:41;;;;;;;0.50;0.50;;;6.30;99.40;;;;;;5092317;28;20668;-63
2024/01/23 09:23:08;;;;;;;1.67;0.77;;;6.10;99.90;;;;;;5093024;28;20325;-62
2024/01/23 09:25:33;;;;;;;1.42;0.70;;;6.20;99.90;;;;;;5093857;28;20259;-63
2024/01/23 09:28:01;;;;;;;0.87;0.60;;;6.00;99.90;;;;;;5093158;28;20172;-63
2024/01/23 09:30:28;;;;;;;3.20;0.85;;;6.00;99.90;;;;;;5091752;28;20415;-62
2024/01/23 09:32:54;;;;;;;2.72;0.90;;;6.00;99.90;;;;;;5090137;28;20182;-62
2024/01/23 09:35:23;;;;;;;2.70;0.80;;;5.90;99.90;;;;;;5092139;28;20233;-62
2024/01/23 09:37:48;;;;;;;0.60;0.60;;;5.90;99.90;;;;;;5092273;28;20173;-64
2024/01/23 09:40:15;;;;;;;0.70;0.70;;;5.90;99.90;;;;;;5091795;28;20184;-62
2024/01/23 09:42:40;;;;;;;0.52;0.52;;;6.00;99.90;;;;;;5091848;28;20294;-63
2024/01/23 09:45:19;;;;;;;0.53;0.53;;;6.20;99.90;;;;;;5091908;28;20207;-63
2024/01/23 09:47:47;;;;;;;2.00;1.05;;;6.00;99.90;;;;;;5090371;28;20168;-63
2024/01/23 09:50:13;;;;;;;1.10;0.73;;;5.80;99.90;;;;;;5091938;28;20278;-63
2024/01/23 09:52:43;;;;;;;0.83;0.83;;;6.00;99.90;;;;;;5091619;28;20601;-63
2024/01/23 09:55:09;;;;;;;2.05;0.80;;;5.90;99.90;;;;;;5091681;28;20175;-64
2024/01/23 09:57:35;;;;;;;3.07;0.87;;;6.00;99.90;;;;;;5091773;28;20206;-65
2024/01/23 10:00:01;;;;;;;1.80;1.05;;;6.10;99.90;;;;;;5091726;28;20418;-64
2024/01/23 10:02:28;;;;;;;1.33;1.03;;;6.20;99.90;;;;;;5091499;28;20588;-63
2024/01/23 10:04:54;;;;;;;0.82;0.82;;;6.20;99.90;;;;;;5090703;28;20186;-63
2024/01/23 10:07:20;;;;;;;4.32;1.20;;;6.10;99.90;;;;;;5091626;28;20175;-64
2024/01/23 10:09:48;;;;;;;1.93;0.80;;;6.00;99.90;;;;;;5091583;28;20253;-64
2024/01/23 10:12:15;;;;;;;1.90;0.88;;;6.10;99.90;;;;;;5091409;28;20178;-64
2024/01/23 10:14:44;;;;;;;1.80;0.88;;;6.10;99.90;;;;;;5091647;28;20178;-64
2024/01/23 10:17:10;;;;;;;0.70;0.70;;;6.30;99.90;;;;;;5091506;28;20662;-64
2024/01/23 10:19:37;;;;;;;1.95;0.80;;;6.40;99.90;;;;;;5091451;28;20212;-64
2024/01/23 10:22:03;;;;;;;1.02;0.60;;;6.30;99.90;;;;;;5091928;28;20271;-64
2024/01/23 10:24:29;;;;;;;2.35;0.80;;;6.00;99.90;;;;;;5091982;28;20246;-64
2024/01/23 10:26:55;;;;;;;5.50;0.83;;;5.80;99.90;;;;;;5091429;28;20205;-63
2024/01/23 10:29:22;;;;;;;0.97;0.73;;;5.80;99.90;;;;;;5091498;28;20933;-63
2024/01/23 10:31:47;;;;;;;4.50;1.27;;;6.00;99.90;;;;;;5089283;28;20186;-64
2024/01/23 10:34:13;;;;;;;3.53;0.63;;;6.20;99.90;;;;;;5091817;28;20186;-65
2024/01/23 10:36:42;;;;;;;5.23;1.80;;;6.40;99.90;;;;;;5091073;28;20282;-63
2024/01/23 10:39:11;;;;;;;5.05;1.13;;;6.60;99.90;;;;;;5090931;28;20457;-65
2024/01/23 10:41:37;;;;;;;3.80;1.95;;;6.60;99.90;;;;;;5090981;28;20206;-65
2024/01/23 10:44:04;;;;;;;1.40;1.08;;;6.40;99.90;;;;;;5091726;28;20223;-64
2024/01/23 10:46:30;;;;;;;1.50;1.20;;;6.30;99.90;;;;;;5092808;28;20242;-64
2024/01/23 10:48:56;;;;;;;8.80;1.58;;;6.20;99.90;;;;;;5091723;28;20176;-64
2024/01/23 10:51:28;;;;;;;4.25;1.60;;;6.20;99.90;;;;;;5091528;28;20179;-63
2024/01/23 10:54:01;;;;;;;9.90;1.20;;;6.10;99.90;;;;;;5084151;28;20183;-63
2024/01/23 10:56:38;;;;;;;3.35;1.20;;;5.90;99.90;;;;;;5073899;28;20581;-63
2024/01/23 10:59:11;;;;;;;1.02;1.02;;;5.90;99.90;;;;;;5091847;28;20660;-63
2024/01/23 11:01:41;;;;;;;2.90;1.55;;;6.10;99.90;;;;;;5080974;28;20203;-62
2024/01/23 11:04:07;;;;;;;2.78;1.58;;;6.10;99.90;;;;;;5071285;28;20234;-59
2024/01/23 11:06:39;;;;;;;9.43;1.97;;;6.40;99.90;;;;;;5071363;28;20198;-61
2024/01/23 11:09:14;;;;;;;2.25;1.08;;;6.70;99.90;;;;;;5072500;28;20164;-61
2024/01/23 11:12:15;;;;;;;4.22;1.35;;;6.90;99.90;;;;;;5091315;28;20171;-62
2024/01/23 11:15:00;;;;;;;3.50;2.10;;;7.10;99.90;;;;;;5091401;28;20201;-62
2024/01/23 11:17:31;;;;;;;4.53;1.45;;;7.20;99.90;;;;;;5095635;28;20179;-61
2024/01/23 11:20:13;;;;;;;14.38;2.72;;;7.30;99.90;;;;;;5095697;28;20570;-59
2024/01/23 11:22:39;;;;;;;1.52;1.42;;;7.50;99.90;;;;;;5095064;28;20208;-62
2024/01/23 11:25:05;;;;;;;3.00;2.15;;;7.70;99.90;;;;;;5095241;28;20184;-61
2024/01/23 11:27:33;;;;;;;6.73;2.23;;;7.70;99.90;;;;;;5082633;28;20174;-62
2024/01/23 11:30:00;;;;;;;3.35;1.75;;;7.80;99.90;;;;;;5074992;28;20407;-61
2024/01/23 11:32:28;;;;;;;6.25;1.70;;;7.90;99.90;;;;;;5074923;28;20203;-58
2024/01/23 11:35:02;;;;;;;2.20;1.10;;;7.80;99.90;;;;;;5075003;28;20174;-62
2024/01/23 11:37:51;;;;;;;3.08;2.17;;;7.70;99.90;;;;;;5074875;28;20192;-61
2024/01/23 11:40:30;;;;;;;5.10;2.33;;;7.90;99.90;;;;;;5074914;28;20177;-61
2024/01/23 11:42:58;;;;;;;6.75;1.70;;;8.00;99.90;;;;;;5074632;28;20568;-62
2024/01/23 11:45:32;;;;;;;5.45;1.60;;;8.20;99.90;;;;;;5074815;28;20212;-61
2024/01/23 11:48:03;;;;;;;7.30;1.50;;;8.40;99.90;;;;;;5074710;28;20177;-62
2024/01/23 11:50:31;;;;;;;3.25;1.98;;;8.80;99.50;;;;;;5074508;28;20176;-62
2024/01/23 11:52:59;;;;;;;10.77;2.20;;;9.10;98.30;;;;;;5074342;28;20182;-60
2024/01/23 11:55:25;;;;;;;5.68;2.58;;;8.60;98.20;;;;;;5074538;28;20203;-61
2024/01/23 11:57:56;;;;;;;7.93;2.83;;;8.70;99.20;;;;;;5074515;28;20170;-62
2024/01/23 12:00:22;;;;;;;9.38;2.35;;;8.90;98.10;;;;;;5073812;28;20174;-63
2024/01/23 12:02:49;;;;;;;6.43;1.38;;;9.20;97.40;;;;;;5074316;28;20209;-63
2024/01/23 12:05:15;;;;;;;3.67;1.85;;;9.50;98.00;;;;;;5074580;28;20189;-63
2024/01/23 12:07:41;;;;;;;3.35;2.03;;;9.70;96.70;;;;;;5075579;28;20161;-63
2024/01/23 12:10:09;;;;;;;2.67;1.47;;;10.00;96.00;;;;;;5074404;28;20471;-63
2024/01/23 12:12:34;;;;;;;8.30;1.87;;;10.10;95.80;;;;;;5074029;28;20403;-61
2024/01/23 12:15:00;;;;;;;1.37;1.27;;;10.30;96.00;;;;;;5074082;28;20419;-62
2024/01/23 12:17:26;;;;;;;6.67;1.97;;;10.20;94.70;;;;;;5074219;28;20662;-62
2024/01/23 12:19:51;;;;;;;5.23;1.50;;;10.10;95.00;;;;;;5074242;28;20181;-62
2024/01/23 12:22:18;;;;;;;5.30;2.23;;;10.20;95.50;;;;;;5073797;28;20208;-61
2024/01/23 12:24:44;;;;;;;2.50;1.58;;;10.20;95.10;;;;;;5074099;28;20200;-61
2024/01/23 12:27:11;;;;;;;2.38;1.25;;;10.00;94.60;;;;;;5072740;28;20213;-61
2024/01/23 12:29:38;;;;;;;4.13;1.35;;;9.60;94.80;;;;;;5083821;28;20575;-61
2024/01/23 12:32:04;;;;;;;3.63;1.80;;;9.20;94.90;;;;;;5093831;28;20177;-61
2024/01/23 12:34:33;;;;;;;9.48;2.15;;;8.70;95.40;;;;;;5094274;28;20168;-61
2024/01/23 12:37:00;;;;;;;8.32;2.97;;;8.60;96.30;;;;;;5094419;28;20201;-62
2024/01/23 12:39:28;;;;;;;8.20;3.55;;;8.70;96.50;;;;;;5094000;28;20176;-62
2024/01/23 12:41:54;;;;;;;3.22;3.03;;;8.90;96.30;;;;;;5093552;28;20469;-61
2024/01/23 12:44:19;;;;;;;6.03;3.10;;;8.90;96.70;;;;;;5094015;28;20664;-61
2024/01/23 12:46:45;;;;;;;2.23;1.50;;;8.90;96.50;;;;;;5093809;28;20201;-60
2024/01/23 12:49:11;;;;;;;8.60;2.40;;;8.90;96.20;;;;;;5093886;28;20540;-61
2024/01/23 12:51:37;;;;;;;5.03;2.00;;;8.90;96.70;;;;;;5093064;28;20180;-62
2024/01/23 12:54:04;;;;;;;6.20;2.20;;;8.90;96.30;;;;;;5093068;28;20177;-61
2024/01/23 12:56:30;;;;;;;13.23;1.83;;;8.90;96.40;;;;;;5093421;28;20385;-62